sensor_id;sensor_type;location;lat;lon;timestamp;temperature;humidity
45104;DHT22;30865;51.288;4.572;2023-06-01T00:01:08;16.40;62.40
45104;DHT22;30865;51.288;4.572;2023-06-01T00:03:38;16.40;63.10
45104;DHT22;30865;51.288;4.572;2023-06-01T00:06:05;16.30;63.00
45104;DHT22;30865;51.288;4.572;2023-06-01T00:08:31;16.30;63.10
45104;DHT22;30865;51.288;4.572;2023-06-01T00:10:57;16.30;63.40
45104;DHT22;30865;51.288;4.572;2023-06-01T00:13:22;16.20;63.80
45104;DHT22;30865;51.288;4.572;2023-06-01T00:15:48;16.20;63.90
45104;DHT22;30865;51.288;4.572;2023-06-01T00:18:14;16.20;64.10
45104;DHT22;30865;51.288;4.572;2023-06-01T00:20:40;16.20;64.40
45104;DHT22;30865;51.288;4.572;2023-06-01T00:23:06;16.20;64.50
45104;DHT22;30865;51.288;4.572;2023-06-01T00:25:36;16.10;64.60
45104;DHT22;30865;51.288;4.572;2023-06-01T00:28:02;16.10;65.60
45104;DHT22;30865;51.288;4.572;2023-06-01T00:30:28;16.10;67.10
45104;DHT22;30865;51.288;4.572;2023-06-01T00:32:53;16.10;68.00
45104;DHT22;30865;51.288;4.572;2023-06-01T00:35:19;16.00;68.70
45104;DHT22;30865;51.288;4.572;2023-06-01T00:37:44;16.10;68.60
45104;DHT22;30865;51.288;4.572;2023-06-01T00:40:10;16.10;68.60
45104;DHT22;30865;51.288;4.572;2023-06-01T00:42:36;16.10;67.90
45104;DHT22;30865;51.288;4.572;2023-06-01T00:45:01;16.00;68.70
45104;DHT22;30865;51.288;4.572;2023-06-01T00:47:27;16.10;67.90
45104;DHT22;30865;51.288;4.572;2023-06-01T00:49:52;16.10;67.80
45104;DHT22;30865;51.288;4.572;2023-06-01T00:52:18;16.10;66.30
45104;DHT22;30865;51.288;4.572;2023-06-01T00:54:44;16.10;66.60
45104;DHT22;30865;51.288;4.572;2023-06-01T00:57:10;16.00;67.20
45104;DHT22;30865;51.288;4.572;2023-06-01T00:59:36;16.00;67.20
45104;DHT22;30865;51.288;4.572;2023-06-01T01:02:02;16.00;66.30
45104;DHT22;30865;51.288;4.572;2023-06-01T01:04:30;16.00;68.60
45104;DHT22;30865;51.288;4.572;2023-06-01T01:07:15;16.00;68.70
45104;DHT22;30865;51.288;4.572;2023-06-01T01:12:42;15.80;70.50
45104;DHT22;30865;51.288;4.572;2023-06-01T01:18:04;15.50;71.90
45104;DHT22;30865;51.288;4.572;2023-06-01T01:20:39;15.50;72.10
45104;DHT22;30865;51.288;4.572;2023-06-01T01:25:59;15.60;73.60
45104;DHT22;30865;51.288;4.572;2023-06-01T01:28:49;15.60;74.20
45104;DHT22;30865;51.288;4.572;2023-06-01T01:31:18;15.50;75.20
45104;DHT22;30865;51.288;4.572;2023-06-01T01:33:46;15.50;75.90
45104;DHT22;30865;51.288;4.572;2023-06-01T01:36:13;15.50;75.70
45104;DHT22;30865;51.288;4.572;2023-06-01T01:38:38;15.40;74.90
45104;DHT22;30865;51.288;4.572;2023-06-01T01:41:05;15.40;74.30
45104;DHT22;30865;51.288;4.572;2023-06-01T01:43:31;15.30;74.30
45104;DHT22;30865;51.288;4.572;2023-06-01T01:48:38;15.30;75.50
45104;DHT22;30865;51.288;4.572;2023-06-01T01:51:10;15.20;75.10
45104;DHT22;30865;51.288;4.572;2023-06-01T01:53:39;15.20;75.30
45104;DHT22;30865;51.288;4.572;2023-06-01T01:56:07;15.10;75.50
45104;DHT22;30865;51.288;4.572;2023-06-01T01:58:33;15.00;76.10
45104;DHT22;30865;51.288;4.572;2023-06-01T02:00:59;14.90;76.50
45104;DHT22;30865;51.288;4.572;2023-06-01T02:03:25;14.80;77.20
45104;DHT22;30865;51.288;4.572;2023-06-01T02:05:51;14.80;77.30
45104;DHT22;30865;51.288;4.572;2023-06-01T02:08:16;14.80;77.90
45104;DHT22;30865;51.288;4.572;2023-06-01T02:10:42;14.80;78.30
45104;DHT22;30865;51.288;4.572;2023-06-01T02:13:07;14.70;79.30
45104;DHT22;30865;51.288;4.572;2023-06-01T02:15:33;14.80;78.50
45104;DHT22;30865;51.288;4.572;2023-06-01T02:17:58;14.80;79.40
45104;DHT22;30865;51.288;4.572;2023-06-01T02:20:34;14.80;80.10
45104;DHT22;30865;51.288;4.572;2023-06-01T02:22:59;14.80;80.20
45104;DHT22;30865;51.288;4.572;2023-06-01T02:25:25;14.80;78.90
45104;DHT22;30865;51.288;4.572;2023-06-01T02:27:50;14.70;78.60
45104;DHT22;30865;51.288;4.572;2023-06-01T02:30:16;14.70;80.90
45104;DHT22;30865;51.288;4.572;2023-06-01T02:32:41;14.60;81.10
45104;DHT22;30865;51.288;4.572;2023-06-01T02:35:10;14.70;80.50
45104;DHT22;30865;51.288;4.572;2023-06-01T02:37:36;14.70;80.20
45104;DHT22;30865;51.288;4.572;2023-06-01T02:40:01;14.70;79.70
45104;DHT22;30865;51.288;4.572;2023-06-01T02:42:27;14.60;81.30
45104;DHT22;30865;51.288;4.572;2023-06-01T02:44:52;14.60;81.20
45104;DHT22;30865;51.288;4.572;2023-06-01T02:47:18;14.50;81.00
45104;DHT22;30865;51.288;4.572;2023-06-01T02:49:43;14.50;81.60
45104;DHT22;30865;51.288;4.572;2023-06-01T02:52:09;14.50;82.00
45104;DHT22;30865;51.288;4.572;2023-06-01T02:54:35;14.50;81.80
45104;DHT22;30865;51.288;4.572;2023-06-01T02:57:00;14.50;82.40
45104;DHT22;30865;51.288;4.572;2023-06-01T02:59:26;14.40;82.30
45104;DHT22;30865;51.288;4.572;2023-06-01T03:01:52;14.40;82.30
45104;DHT22;30865;51.288;4.572;2023-06-01T03:04:18;14.40;82.30
45104;DHT22;30865;51.288;4.572;2023-06-01T03:06:44;14.30;83.00
45104;DHT22;30865;51.288;4.572;2023-06-01T03:09:10;14.20;83.50
45104;DHT22;30865;51.288;4.572;2023-06-01T03:11:41;14.30;83.10
45104;DHT22;30865;51.288;4.572;2023-06-01T03:14:07;14.30;84.10
45104;DHT22;30865;51.288;4.572;2023-06-01T03:16:33;14.30;83.90
45104;DHT22;30865;51.288;4.572;2023-06-01T03:19:00;14.20;85.00
45104;DHT22;30865;51.288;4.572;2023-06-01T03:21:25;14.10;85.30
45104;DHT22;30865;51.288;4.572;2023-06-01T03:23:52;14.00;86.60
45104;DHT22;30865;51.288;4.572;2023-06-01T03:26:18;14.10;86.30
45104;DHT22;30865;51.288;4.572;2023-06-01T03:28:46;14.10;85.50
45104;DHT22;30865;51.288;4.572;2023-06-01T03:31:12;14.00;86.30
45104;DHT22;30865;51.288;4.572;2023-06-01T03:33:38;14.00;86.80
45104;DHT22;30865;51.288;4.572;2023-06-01T03:36:04;14.00;87.40
45104;DHT22;30865;51.288;4.572;2023-06-01T03:38:30;13.90;87.50
45104;DHT22;30865;51.288;4.572;2023-06-01T03:40:55;14.00;87.60
45104;DHT22;30865;51.288;4.572;2023-06-01T03:43:21;14.10;86.80
45104;DHT22;30865;51.288;4.572;2023-06-01T03:45:47;14.10;87.50
45104;DHT22;30865;51.288;4.572;2023-06-01T03:48:12;14.10;87.40
45104;DHT22;30865;51.288;4.572;2023-06-01T03:50:38;14.10;86.30
45104;DHT22;30865;51.288;4.572;2023-06-01T03:53:03;14.10;87.00
45104;DHT22;30865;51.288;4.572;2023-06-01T03:55:29;14.20;87.00
45104;DHT22;30865;51.288;4.572;2023-06-01T03:57:56;14.20;86.10
45104;DHT22;30865;51.288;4.572;2023-06-01T04:00:22;14.30;85.80
45104;DHT22;30865;51.288;4.572;2023-06-01T04:02:54;14.20;86.40
45104;DHT22;30865;51.288;4.572;2023-06-01T04:05:21;14.10;87.30
45104;DHT22;30865;51.288;4.572;2023-06-01T04:07:49;14.10;87.50
45104;DHT22;30865;51.288;4.572;2023-06-01T04:10:16;14.10;87.70
45104;DHT22;30865;51.288;4.572;2023-06-01T04:12:43;14.20;88.10
45104;DHT22;30865;51.288;4.572;2023-06-01T04:15:13;14.10;88.50
45104;DHT22;30865;51.288;4.572;2023-06-01T04:17:40;14.00;88.90
45104;DHT22;30865;51.288;4.572;2023-06-01T04:20:08;14.00;89.70
45104;DHT22;30865;51.288;4.572;2023-06-01T04:22:37;14.00;90.00
45104;DHT22;30865;51.288;4.572;2023-06-01T04:25:08;14.00;89.70
45104;DHT22;30865;51.288;4.572;2023-06-01T04:27:34;14.10;89.50
45104;DHT22;30865;51.288;4.572;2023-06-01T04:30:05;14.20;89.10
45104;DHT22;30865;51.288;4.572;2023-06-01T04:32:33;14.20;89.10
45104;DHT22;30865;51.288;4.572;2023-06-01T04:35:01;14.30;88.80
45104;DHT22;30865;51.288;4.572;2023-06-01T04:37:26;14.30;88.60
45104;DHT22;30865;51.288;4.572;2023-06-01T04:39:54;14.40;88.80
45104;DHT22;30865;51.288;4.572;2023-06-01T04:42:21;14.40;88.40
45104;DHT22;30865;51.288;4.572;2023-06-01T04:44:47;14.40;88.90
45104;DHT22;30865;51.288;4.572;2023-06-01T04:47:15;14.50;89.00
45104;DHT22;30865;51.288;4.572;2023-06-01T04:49:42;14.50;88.50
45104;DHT22;30865;51.288;4.572;2023-06-01T04:52:09;14.60;88.10
45104;DHT22;30865;51.288;4.572;2023-06-01T04:54:36;14.70;88.00
45104;DHT22;30865;51.288;4.572;2023-06-01T04:57:02;14.80;88.10
45104;DHT22;30865;51.288;4.572;2023-06-01T04:59:27;14.90;87.50
45104;DHT22;30865;51.288;4.572;2023-06-01T05:01:54;14.90;87.70
45104;DHT22;30865;51.288;4.572;2023-06-01T05:04:19;15.00;87.90
45104;DHT22;30865;51.288;4.572;2023-06-01T05:06:46;15.10;87.90
45104;DHT22;30865;51.288;4.572;2023-06-01T05:09:11;15.10;88.10
45104;DHT22;30865;51.288;4.572;2023-06-01T05:11:38;15.20;88.20
45104;DHT22;30865;51.288;4.572;2023-06-01T05:14:04;15.30;87.70
45104;DHT22;30865;51.288;4.572;2023-06-01T05:16:29;15.30;87.80
45104;DHT22;30865;51.288;4.572;2023-06-01T05:18:55;15.40;87.80
45104;DHT22;30865;51.288;4.572;2023-06-01T05:21:21;15.50;87.00
45104;DHT22;30865;51.288;4.572;2023-06-01T05:23:47;15.70;87.20
45104;DHT22;30865;51.288;4.572;2023-06-01T05:26:16;15.70;87.10
45104;DHT22;30865;51.288;4.572;2023-06-01T05:28:42;15.80;86.50
45104;DHT22;30865;51.288;4.572;2023-06-01T05:31:07;15.70;85.90
45104;DHT22;30865;51.288;4.572;2023-06-01T05:33:33;15.80;83.80
45104;DHT22;30865;51.288;4.572;2023-06-01T05:35:58;15.80;82.70
45104;DHT22;30865;51.288;4.572;2023-06-01T05:38:24;15.90;83.20
45104;DHT22;30865;51.288;4.572;2023-06-01T05:40:50;16.20;81.70
45104;DHT22;30865;51.288;4.572;2023-06-01T05:43:15;16.40;80.20
45104;DHT22;30865;51.288;4.572;2023-06-01T05:45:41;16.50;79.40
45104;DHT22;30865;51.288;4.572;2023-06-01T05:48:06;16.70;77.20
45104;DHT22;30865;51.288;4.572;2023-06-01T05:50:32;16.60;76.60
45104;DHT22;30865;51.288;4.572;2023-06-01T05:52:57;17.00;75.00
45104;DHT22;30865;51.288;4.572;2023-06-01T05:55:23;17.10;74.70
45104;DHT22;30865;51.288;4.572;2023-06-01T05:57:48;17.30;73.80
45104;DHT22;30865;51.288;4.572;2023-06-01T06:00:15;17.40;72.30
45104;DHT22;30865;51.288;4.572;2023-06-01T06:02:43;17.70;71.80
45104;DHT22;30865;51.288;4.572;2023-06-01T06:05:09;17.80;71.30
45104;DHT22;30865;51.288;4.572;2023-06-01T06:07:35;18.10;70.10
45104;DHT22;30865;51.288;4.572;2023-06-01T06:10:00;18.00;69.70
45104;DHT22;30865;51.288;4.572;2023-06-01T06:12:26;18.00;69.00
45104;DHT22;30865;51.288;4.572;2023-06-01T06:14:52;18.40;68.50
45104;DHT22;30865;51.288;4.572;2023-06-01T06:17:17;18.40;66.40
45104;DHT22;30865;51.288;4.572;2023-06-01T06:19:43;18.70;65.20
45104;DHT22;30865;51.288;4.572;2023-06-01T06:22:10;18.70;63.50
45104;DHT22;30865;51.288;4.572;2023-06-01T06:24:35;18.50;61.70
45104;DHT22;30865;51.288;4.572;2023-06-01T06:27:01;18.50;62.00
45104;DHT22;30865;51.288;4.572;2023-06-01T06:29:27;18.70;62.30
45104;DHT22;30865;51.288;4.572;2023-06-01T06:31:53;18.80;60.70
45104;DHT22;30865;51.288;4.572;2023-06-01T06:34:18;18.50;63.60
45104;DHT22;30865;51.288;4.572;2023-06-01T06:36:44;18.80;61.70
45104;DHT22;30865;51.288;4.572;2023-06-01T06:39:09;19.10;60.70
45104;DHT22;30865;51.288;4.572;2023-06-01T06:41:36;19.20;60.00
45104;DHT22;30865;51.288;4.572;2023-06-01T06:44:01;19.50;59.80
45104;DHT22;30865;51.288;4.572;2023-06-01T06:46:27;19.20;58.80
45104;DHT22;30865;51.288;4.572;2023-06-01T06:48:53;19.60;58.50
45104;DHT22;30865;51.288;4.572;2023-06-01T06:51:19;19.80;59.20
45104;DHT22;30865;51.288;4.572;2023-06-01T06:53:45;19.40;59.20
45104;DHT22;30865;51.288;4.572;2023-06-01T06:56:10;19.40;59.30
45104;DHT22;30865;51.288;4.572;2023-06-01T06:58:36;19.70;59.00
45104;DHT22;30865;51.288;4.572;2023-06-01T07:01:01;19.80;59.10
45104;DHT22;30865;51.288;4.572;2023-06-01T07:03:30;20.10;57.90
45104;DHT22;30865;51.288;4.572;2023-06-01T07:05:56;20.00;57.60
45104;DHT22;30865;51.288;4.572;2023-06-01T07:08:21;20.20;57.00
45104;DHT22;30865;51.288;4.572;2023-06-01T07:10:47;20.20;57.20
45104;DHT22;30865;51.288;4.572;2023-06-01T07:13:12;20.70;56.40
45104;DHT22;30865;51.288;4.572;2023-06-01T07:15:38;20.70;56.40
45104;DHT22;30865;51.288;4.572;2023-06-01T07:18:04;20.90;55.60
45104;DHT22;30865;51.288;4.572;2023-06-01T07:20:29;20.90;55.30
45104;DHT22;30865;51.288;4.572;2023-06-01T07:22:55;20.90;55.30
45104;DHT22;30865;51.288;4.572;2023-06-01T07:25:20;21.00;54.50
45104;DHT22;30865;51.288;4.572;2023-06-01T07:27:46;20.90;55.00
45104;DHT22;30865;51.288;4.572;2023-06-01T07:30:13;21.30;54.90
45104;DHT22;30865;51.288;4.572;2023-06-01T07:32:40;21.30;54.70
45104;DHT22;30865;51.288;4.572;2023-06-01T07:35:06;21.20;54.20
45104;DHT22;30865;51.288;4.572;2023-06-01T07:37:33;21.40;53.60
45104;DHT22;30865;51.288;4.572;2023-06-01T07:39:58;21.40;53.90
45104;DHT22;30865;51.288;4.572;2023-06-01T07:42:24;21.70;53.20
45104;DHT22;30865;51.288;4.572;2023-06-01T07:44:50;21.70;52.80
45104;DHT22;30865;51.288;4.572;2023-06-01T07:47:16;21.80;52.00
45104;DHT22;30865;51.288;4.572;2023-06-01T07:49:42;22.00;52.30
45104;DHT22;30865;51.288;4.572;2023-06-01T07:52:08;22.00;51.70
45104;DHT22;30865;51.288;4.572;2023-06-01T07:54:34;22.40;51.40
45104;DHT22;30865;51.288;4.572;2023-06-01T07:57:02;22.30;51.70
45104;DHT22;30865;51.288;4.572;2023-06-01T07:59:30;22.60;50.70
45104;DHT22;30865;51.288;4.572;2023-06-01T08:01:56;22.40;50.80
45104;DHT22;30865;51.288;4.572;2023-06-01T08:04:22;22.30;50.50
45104;DHT22;30865;51.288;4.572;2023-06-01T08:06:49;22.50;50.50
45104;DHT22;30865;51.288;4.572;2023-06-01T08:09:20;22.10;50.30
45104;DHT22;30865;51.288;4.572;2023-06-01T08:11:46;22.50;50.00
45104;DHT22;30865;51.288;4.572;2023-06-01T08:14:12;22.80;49.50
45104;DHT22;30865;51.288;4.572;2023-06-01T08:16:37;22.70;49.70
45104;DHT22;30865;51.288;4.572;2023-06-01T08:19:03;23.00;49.30
45104;DHT22;30865;51.288;4.572;2023-06-01T08:21:28;23.10;49.10
45104;DHT22;30865;51.288;4.572;2023-06-01T08:23:54;23.20;48.80
45104;DHT22;30865;51.288;4.572;2023-06-01T08:26:23;23.20;48.90
45104;DHT22;30865;51.288;4.572;2023-06-01T08:28:49;23.30;48.50
45104;DHT22;30865;51.288;4.572;2023-06-01T08:31:22;23.10;48.40
45104;DHT22;30865;51.288;4.572;2023-06-01T08:33:49;23.00;48.50
45104;DHT22;30865;51.288;4.572;2023-06-01T08:36:16;23.00;48.50
45104;DHT22;30865;51.288;4.572;2023-06-01T08:38:42;23.30;48.90
45104;DHT22;30865;51.288;4.572;2023-06-01T08:44:03;23.20;48.90
45104;DHT22;30865;51.288;4.572;2023-06-01T08:46:32;23.20;48.90
45104;DHT22;30865;51.288;4.572;2023-06-01T08:48:58;23.60;48.70
45104;DHT22;30865;51.288;4.572;2023-06-01T08:51:25;23.60;48.10
45104;DHT22;30865;51.288;4.572;2023-06-01T08:53:52;23.70;48.30
45104;DHT22;30865;51.288;4.572;2023-06-01T08:56:19;24.00;48.20
45104;DHT22;30865;51.288;4.572;2023-06-01T08:58:47;24.10;48.30
45104;DHT22;30865;51.288;4.572;2023-06-01T09:01:20;24.30;47.80
45104;DHT22;30865;51.288;4.572;2023-06-01T09:03:48;24.20;47.10
45104;DHT22;30865;51.288;4.572;2023-06-01T09:06:14;24.30;47.80
45104;DHT22;30865;51.288;4.572;2023-06-01T09:08:41;24.70;47.00
45104;DHT22;30865;51.288;4.572;2023-06-01T09:11:06;24.80;47.20
45104;DHT22;30865;51.288;4.572;2023-06-01T09:13:37;24.90;46.00
45104;DHT22;30865;51.288;4.572;2023-06-01T09:16:03;24.70;46.30
45104;DHT22;30865;51.288;4.572;2023-06-01T09:18:29;24.60;45.80
45104;DHT22;30865;51.288;4.572;2023-06-01T09:20:57;24.80;46.60
45104;DHT22;30865;51.288;4.572;2023-06-01T09:23:44;25.00;46.30
45104;DHT22;30865;51.288;4.572;2023-06-01T09:26:11;25.30;46.00
45104;DHT22;30865;51.288;4.572;2023-06-01T09:31:35;25.50;45.60
45104;DHT22;30865;51.288;4.572;2023-06-01T09:34:02;25.10;45.20
45104;DHT22;30865;51.288;4.572;2023-06-01T09:36:27;25.10;45.80
45104;DHT22;30865;51.288;4.572;2023-06-01T09:39:13;25.70;45.00
45104;DHT22;30865;51.288;4.572;2023-06-01T09:41:56;25.80;45.00
45104;DHT22;30865;51.288;4.572;2023-06-01T09:44:30;25.80;44.50
45104;DHT22;30865;51.288;4.572;2023-06-01T09:46:58;25.80;45.00
45104;DHT22;30865;51.288;4.572;2023-06-01T09:49:28;26.20;44.30
45104;DHT22;30865;51.288;4.572;2023-06-01T09:54:29;25.90;44.00
45104;DHT22;30865;51.288;4.572;2023-06-01T09:56:57;26.10;44.50
45104;DHT22;30865;51.288;4.572;2023-06-01T09:59:24;26.40;43.80
45104;DHT22;30865;51.288;4.572;2023-06-01T10:01:52;25.90;44.70
45104;DHT22;30865;51.288;4.572;2023-06-01T10:04:24;25.90;45.20
45104;DHT22;30865;51.288;4.572;2023-06-01T10:06:51;26.10;44.20
45104;DHT22;30865;51.288;4.572;2023-06-01T10:09:17;26.30;43.40
45104;DHT22;30865;51.288;4.572;2023-06-01T10:11:45;26.20;43.70
45104;DHT22;30865;51.288;4.572;2023-06-01T10:14:12;25.80;44.20
45104;DHT22;30865;51.288;4.572;2023-06-01T10:16:38;25.90;44.00
45104;DHT22;30865;51.288;4.572;2023-06-01T10:19:07;26.10;44.10
45104;DHT22;30865;51.288;4.572;2023-06-01T10:21:33;26.30;42.30
45104;DHT22;30865;51.288;4.572;2023-06-01T10:23:59;26.60;40.60
45104;DHT22;30865;51.288;4.572;2023-06-01T10:26:26;26.50;40.80
45104;DHT22;30865;51.288;4.572;2023-06-01T10:28:53;26.40;39.80
45104;DHT22;30865;51.288;4.572;2023-06-01T10:31:40;26.60;39.60
45104;DHT22;30865;51.288;4.572;2023-06-01T10:34:07;26.90;40.00
45104;DHT22;30865;51.288;4.572;2023-06-01T10:39:24;27.00;40.80
45104;DHT22;30865;51.288;4.572;2023-06-01T10:44:48;26.30;42.10
45104;DHT22;30865;51.288;4.572;2023-06-01T10:52:31;26.50;41.40
45104;DHT22;30865;51.288;4.572;2023-06-01T10:57:40;27.20;40.10
45104;DHT22;30865;51.288;4.572;2023-06-01T11:00:26;26.90;40.10
45104;DHT22;30865;51.288;4.572;2023-06-01T11:03:03;26.60;40.20
45104;DHT22;30865;51.288;4.572;2023-06-01T11:05:38;26.60;40.70
45104;DHT22;30865;51.288;4.572;2023-06-01T11:08:55;26.80;39.60
45104;DHT22;30865;51.288;4.572;2023-06-01T11:10:58;27.10;40.60
45104;DHT22;30865;51.288;4.572;2023-06-01T11:13:38;27.10;39.50
45104;DHT22;30865;51.288;4.572;2023-06-01T11:21:10;26.90;40.50
45104;DHT22;30865;51.288;4.572;2023-06-01T11:23:38;27.20;40.60
45104;DHT22;30865;51.288;4.572;2023-06-01T11:26:06;27.70;40.30
45104;DHT22;30865;51.288;4.572;2023-06-01T11:28:32;27.40;40.10
45104;DHT22;30865;51.288;4.572;2023-06-01T11:31:00;27.80;39.50
45104;DHT22;30865;51.288;4.572;2023-06-01T11:33:28;27.50;39.60
45104;DHT22;30865;51.288;4.572;2023-06-01T11:35:58;27.80;39.70
45104;DHT22;30865;51.288;4.572;2023-06-01T11:38:23;27.70;39.40
45104;DHT22;30865;51.288;4.572;2023-06-01T11:41:02;28.10;39.20
45104;DHT22;30865;51.288;4.572;2023-06-01T11:43:31;27.80;39.30
45104;DHT22;30865;51.288;4.572;2023-06-01T11:46:15;27.90;39.20
45104;DHT22;30865;51.288;4.572;2023-06-01T11:48:41;28.30;38.80
45104;DHT22;30865;51.288;4.572;2023-06-01T11:51:06;28.30;38.00
45104;DHT22;30865;51.288;4.572;2023-06-01T11:53:32;28.50;37.90
45104;DHT22;30865;51.288;4.572;2023-06-01T11:55:58;28.30;38.60
45104;DHT22;30865;51.288;4.572;2023-06-01T11:58:28;28.60;38.10
45104;DHT22;30865;51.288;4.572;2023-06-01T12:00:55;28.10;37.90
45104;DHT22;30865;51.288;4.572;2023-06-01T12:03:21;27.90;38.90
45104;DHT22;30865;51.288;4.572;2023-06-01T12:05:47;27.80;38.50
45104;DHT22;30865;51.288;4.572;2023-06-01T12:08:18;28.00;38.30
45104;DHT22;30865;51.288;4.572;2023-06-01T12:10:44;27.90;37.80
45104;DHT22;30865;51.288;4.572;2023-06-01T12:13:12;28.10;36.70
45104;DHT22;30865;51.288;4.572;2023-06-01T12:15:38;28.30;37.20
45104;DHT22;30865;51.288;4.572;2023-06-01T12:18:04;28.60;36.80
45104;DHT22;30865;51.288;4.572;2023-06-01T12:20:35;28.50;35.90
45104;DHT22;30865;51.288;4.572;2023-06-01T12:25:47;29.40;35.30
45104;DHT22;30865;51.288;4.572;2023-06-01T12:28:13;29.30;35.50
45104;DHT22;30865;51.288;4.572;2023-06-01T12:30:38;29.10;35.90
45104;DHT22;30865;51.288;4.572;2023-06-01T12:33:04;29.00;36.90
45104;DHT22;30865;51.288;4.572;2023-06-01T12:35:31;28.20;37.30
45104;DHT22;30865;51.288;4.572;2023-06-01T12:40:32;29.10;36.20
45104;DHT22;30865;51.288;4.572;2023-06-01T12:42:58;29.00;35.30
45104;DHT22;30865;51.288;4.572;2023-06-01T12:45:24;29.00;36.40
45104;DHT22;30865;51.288;4.572;2023-06-01T12:47:50;28.70;37.00
45104;DHT22;30865;51.288;4.572;2023-06-01T12:50:15;28.80;36.70
45104;DHT22;30865;51.288;4.572;2023-06-01T12:52:42;28.90;36.10
45104;DHT22;30865;51.288;4.572;2023-06-01T12:55:08;29.20;36.50
45104;DHT22;30865;51.288;4.572;2023-06-01T12:57:35;29.70;35.50
45104;DHT22;30865;51.288;4.572;2023-06-01T13:00:02;29.20;35.30
45104;DHT22;30865;51.288;4.572;2023-06-01T13:02:30;29.80;35.80
45104;DHT22;30865;51.288;4.572;2023-06-01T13:04:55;29.20;35.20
45104;DHT22;30865;51.288;4.572;2023-06-01T13:07:22;29.30;35.40
45104;DHT22;30865;51.288;4.572;2023-06-01T13:09:49;29.40;34.00
45104;DHT22;30865;51.288;4.572;2023-06-01T13:12:14;29.60;33.90
45104;DHT22;30865;51.288;4.572;2023-06-01T13:14:40;29.10;34.20
45104;DHT22;30865;51.288;4.572;2023-06-01T13:17:05;29.20;34.50
45104;DHT22;30865;51.288;4.572;2023-06-01T13:19:33;29.20;34.40
45104;DHT22;30865;51.288;4.572;2023-06-01T13:21:58;28.10;36.90
45104;DHT22;30865;51.288;4.572;2023-06-01T13:24:24;28.60;36.30
45104;DHT22;30865;51.288;4.572;2023-06-01T13:26:50;28.20;37.30
45104;DHT22;30865;51.288;4.572;2023-06-01T13:29:15;28.80;36.60
45104;DHT22;30865;51.288;4.572;2023-06-01T13:31:41;28.80;35.90
45104;DHT22;30865;51.288;4.572;2023-06-01T13:34:06;29.20;35.80
45104;DHT22;30865;51.288;4.572;2023-06-01T13:36:33;29.50;35.10
45104;DHT22;30865;51.288;4.572;2023-06-01T13:39:00;30.00;34.40
45104;DHT22;30865;51.288;4.572;2023-06-01T13:41:26;30.40;33.80
45104;DHT22;30865;51.288;4.572;2023-06-01T13:43:52;30.40;33.20
45104;DHT22;30865;51.288;4.572;2023-06-01T13:46:17;29.60;34.50
45104;DHT22;30865;51.288;4.572;2023-06-01T13:48:43;29.10;34.40
45104;DHT22;30865;51.288;4.572;2023-06-01T13:51:09;29.40;34.70
45104;DHT22;30865;51.288;4.572;2023-06-01T13:53:35;29.70;33.90
45104;DHT22;30865;51.288;4.572;2023-06-01T13:56:00;29.70;34.10
45104;DHT22;30865;51.288;4.572;2023-06-01T13:58:26;29.60;34.00
45104;DHT22;30865;51.288;4.572;2023-06-01T14:00:52;29.60;34.10
45104;DHT22;30865;51.288;4.572;2023-06-01T14:03:17;29.70;34.10
45104;DHT22;30865;51.288;4.572;2023-06-01T14:05:43;30.20;33.30
45104;DHT22;30865;51.288;4.572;2023-06-01T14:08:09;30.00;32.90
45104;DHT22;30865;51.288;4.572;2023-06-01T14:10:34;30.00;33.00
45104;DHT22;30865;51.288;4.572;2023-06-01T14:13:01;30.50;32.60
45104;DHT22;30865;51.288;4.572;2023-06-01T14:15:27;30.60;32.00
45104;DHT22;30865;51.288;4.572;2023-06-01T14:17:52;30.90;31.60
45104;DHT22;30865;51.288;4.572;2023-06-01T14:20:18;30.80;31.30
45104;DHT22;30865;51.288;4.572;2023-06-01T14:22:43;31.00;30.90
45104;DHT22;30865;51.288;4.572;2023-06-01T14:25:09;31.30;30.10
45104;DHT22;30865;51.288;4.572;2023-06-01T14:27:35;31.00;30.30
45104;DHT22;30865;51.288;4.572;2023-06-01T14:30:03;31.20;30.20
45104;DHT22;30865;51.288;4.572;2023-06-01T14:32:29;31.00;30.30
45104;DHT22;30865;51.288;4.572;2023-06-01T14:35:05;31.10;31.10
45104;DHT22;30865;51.288;4.572;2023-06-01T14:37:31;31.00;30.90
45104;DHT22;30865;51.288;4.572;2023-06-01T14:39:57;31.00;31.00
45104;DHT22;30865;51.288;4.572;2023-06-01T14:42:22;30.40;31.50
45104;DHT22;30865;51.288;4.572;2023-06-01T14:44:47;31.40;30.60
45104;DHT22;30865;51.288;4.572;2023-06-01T14:47:14;31.30;30.20
45104;DHT22;30865;51.288;4.572;2023-06-01T14:49:39;31.50;30.20
45104;DHT22;30865;51.288;4.572;2023-06-01T14:52:05;32.20;29.40
45104;DHT22;30865;51.288;4.572;2023-06-01T14:54:31;32.50;29.00
45104;DHT22;30865;51.288;4.572;2023-06-01T14:56:56;31.80;28.80
45104;DHT22;30865;51.288;4.572;2023-06-01T14:59:22;32.20;28.60
45104;DHT22;30865;51.288;4.572;2023-06-01T15:01:49;32.00;29.80
45104;DHT22;30865;51.288;4.572;2023-06-01T15:04:14;31.80;29.50
45104;DHT22;30865;51.288;4.572;2023-06-01T15:06:40;31.50;29.50
45104;DHT22;30865;51.288;4.572;2023-06-01T15:09:06;32.20;29.20
45104;DHT22;30865;51.288;4.572;2023-06-01T15:11:32;32.40;29.20
45104;DHT22;30865;51.288;4.572;2023-06-01T15:13:59;31.90;29.30
45104;DHT22;30865;51.288;4.572;2023-06-01T15:16:27;32.20;29.30
45104;DHT22;30865;51.288;4.572;2023-06-01T15:18:57;32.30;28.70
45104;DHT22;30865;51.288;4.572;2023-06-01T15:21:22;32.20;29.10
45104;DHT22;30865;51.288;4.572;2023-06-01T15:23:48;31.60;30.00
45104;DHT22;30865;51.288;4.572;2023-06-01T15:26:13;32.00;29.60
45104;DHT22;30865;51.288;4.572;2023-06-01T15:28:39;32.10;29.70
45104;DHT22;30865;51.288;4.572;2023-06-01T15:31:04;31.80;29.90
45104;DHT22;30865;51.288;4.572;2023-06-01T15:33:30;32.30;29.20
45104;DHT22;30865;51.288;4.572;2023-06-01T15:35:55;32.40;28.80
45104;DHT22;30865;51.288;4.572;2023-06-01T15:38:21;31.90;28.70
45104;DHT22;30865;51.288;4.572;2023-06-01T15:40:46;32.40;28.60
45104;DHT22;30865;51.288;4.572;2023-06-01T15:43:12;33.10;28.20
45104;DHT22;30865;51.288;4.572;2023-06-01T15:45:38;33.40;27.60
45104;DHT22;30865;51.288;4.572;2023-06-01T15:48:03;33.50;27.90
45104;DHT22;30865;51.288;4.572;2023-06-01T15:50:29;32.80;28.20
45104;DHT22;30865;51.288;4.572;2023-06-01T15:52:54;32.20;28.20
45104;DHT22;30865;51.288;4.572;2023-06-01T15:55:20;33.60;28.10
45104;DHT22;30865;51.288;4.572;2023-06-01T15:57:45;32.20;27.30
45104;DHT22;30865;51.288;4.572;2023-06-01T16:00:11;33.30;27.50
45104;DHT22;30865;51.288;4.572;2023-06-01T16:02:37;33.90;27.00
45104;DHT22;30865;51.288;4.572;2023-06-01T16:05:04;34.00;26.20
45104;DHT22;30865;51.288;4.572;2023-06-01T16:07:30;33.70;26.50
45104;DHT22;30865;51.288;4.572;2023-06-01T16:09:55;33.80;26.90
45104;DHT22;30865;51.288;4.572;2023-06-01T16:12:21;33.80;26.70